createdAt,value
2022-09-04T00:00:04.000Z,2.5
2022-09-04T00:01:21.000Z,2.7
2022-09-04T00:02:36.000Z,2.4
2022-09-04T00:03:52.000Z,2.6
2022-09-04T00:05:08.000Z,2.6
2022-09-04T00:06:25.000Z,2.6
2022-09-04T00:07:41.000Z,2.9
2022-09-04T00:08:57.000Z,2.5
2022-09-04T00:10:14.000Z,2.4
2022-09-04T00:11:30.000Z,2.3
2022-09-04T00:12:46.000Z,2.7
2022-09-04T00:14:02.000Z,2.4
2022-09-04T00:17:51.000Z,2.6
2022-09-04T00:19:07.000Z,2.8
2022-09-04T00:21:39.000Z,2.5
2022-09-04T00:22:55.000Z,2.7
2022-09-04T00:24:10.000Z,2.6
2022-09-04T00:25:26.000Z,2.3
2022-09-04T00:26:42.000Z,2.5
2022-09-04T00:27:59.000Z,2.6
2022-09-04T00:29:15.000Z,2.2
2022-09-04T00:31:48.000Z,2.9
2022-09-04T00:33:04.000Z,2.4
2022-09-04T00:34:20.000Z,2.6
2022-09-04T00:35:36.000Z,2.7
2022-09-04T00:36:53.000Z,2.2
2022-09-04T00:38:09.000Z,2.4
2022-09-04T00:39:25.000Z,2.4
2022-09-04T00:40:41.000Z,2.2
2022-09-04T00:41:57.000Z,2.4
2022-09-04T00:43:13.000Z,2.7
2022-09-04T00:44:29.000Z,2.6
2022-09-04T00:45:46.000Z,2.5
2022-09-04T00:47:02.000Z,2.4
2022-09-04T00:48:18.000Z,2.4
2022-09-04T00:49:35.000Z,2.6
2022-09-04T00:50:50.000Z,2.4
2022-09-04T00:52:05.000Z,2.8
2022-09-04T00:54:38.000Z,2.7
2022-09-04T00:55:54.000Z,3
2022-09-04T00:57:10.000Z,2.9
2022-09-04T00:58:27.000Z,2.8
2022-09-04T00:59:43.000Z,2.6
2022-09-04T01:00:59.000Z,2.5
2022-09-04T01:02:16.000Z,2.9
2022-09-04T01:03:32.000Z,2.8
2022-09-04T01:04:48.000Z,2.6
2022-09-04T01:07:21.000Z,2.7
2022-09-04T01:08:36.000Z,2.7
2022-09-04T01:09:51.000Z,2.4
2022-09-04T01:11:08.000Z,2.6
2022-09-04T01:12:24.000Z,2.6
2022-09-04T01:13:40.000Z,2.4
2022-09-04T01:14:56.000Z,2.7
2022-09-04T01:16:13.000Z,2.5
2022-09-04T01:17:29.000Z,2.8
2022-09-04T01:18:45.000Z,2.4
2022-09-04T01:20:02.000Z,2.5
2022-09-04T01:21:18.000Z,2.4
2022-09-04T01:22:33.000Z,3.8
2022-09-04T01:23:48.000Z,2.7
2022-09-04T01:25:05.000Z,2.5
2022-09-04T01:26:21.000Z,2.8
2022-09-04T01:27:37.000Z,2.8
2022-09-04T01:28:54.000Z,2.5
2022-09-04T01:30:10.000Z,2.6
2022-09-04T01:31:26.000Z,2.6
2022-09-04T01:32:42.000Z,2.5
2022-09-04T01:33:59.000Z,2.9
2022-09-04T01:36:31.000Z,2.5
2022-09-04T01:37:48.000Z,2.5
2022-09-04T01:39:04.000Z,2.6
2022-09-04T01:40:19.000Z,2.4
2022-09-04T01:41:36.000Z,2.7
2022-09-04T01:42:52.000Z,2.7
2022-09-04T01:45:24.000Z,2.8
2022-09-04T01:46:40.000Z,2.4
2022-09-04T01:47:55.000Z,2.2
2022-09-04T01:49:11.000Z,2.6
2022-09-04T01:50:28.000Z,2.3
2022-09-04T01:51:44.000Z,2.7
2022-09-04T01:53:00.000Z,2.7
2022-09-04T01:54:16.000Z,2.7
2022-09-04T01:55:33.000Z,2.4
2022-09-04T01:56:49.000Z,2.5
2022-09-04T01:58:05.000Z,2.4
2022-09-04T01:59:22.000Z,2.5
2022-09-04T02:00:37.000Z,3
2022-09-04T02:01:53.000Z,2.5
2022-09-04T02:03:08.000Z,2.7
2022-09-04T02:04:25.000Z,2.8
2022-09-04T02:05:41.000Z,2.4
2022-09-04T02:06:57.000Z,2.5
2022-09-04T02:08:14.000Z,2.7
2022-09-04T02:09:30.000Z,2.5
2022-09-04T02:12:02.000Z,2.7
2022-09-04T02:13:19.000Z,2.6
2022-09-04T02:14:35.000Z,2.8
2022-09-04T02:15:51.000Z,3.1
2022-09-04T02:17:08.000Z,2.5
2022-09-04T02:18:24.000Z,2.7
2022-09-04T02:19:39.000Z,3.1
2022-09-04T02:20:56.000Z,2.5
2022-09-04T02:22:12.000Z,2.8
2022-09-04T02:23:28.000Z,2.6
2022-09-04T02:24:44.000Z,2.8
2022-09-04T02:26:01.000Z,3
2022-09-04T02:27:17.000Z,2.9
2022-09-04T02:28:33.000Z,3.2
2022-09-04T02:29:50.000Z,2.8
2022-09-04T02:31:06.316Z,3
2022-09-04T02:32:22.000Z,2.9
2022-09-04T02:33:38.000Z,2.9
2022-09-04T02:36:11.000Z,2.6
2022-09-04T02:37:26.000Z,2.4
2022-09-04T02:38:43.000Z,2.7
2022-09-04T02:39:59.000Z,3.1
2022-09-04T02:41:15.000Z,2.9
2022-09-04T02:42:31.000Z,2.7
2022-09-04T02:43:48.000Z,2.6
2022-09-04T02:45:04.000Z,2.7
2022-09-04T02:46:20.000Z,2.6
2022-09-04T02:47:37.000Z,2.6
2022-09-04T02:48:53.000Z,2.8
2022-09-04T02:50:09.000Z,2.7
2022-09-04T02:51:25.000Z,3.2
2022-09-04T02:52:42.000Z,2.8
2022-09-04T02:55:13.000Z,2.6
2022-09-04T02:56:30.000Z,2.7
2022-09-04T02:57:46.000Z,2.6
2022-09-04T02:59:02.000Z,3.4
2022-09-04T03:01:35.000Z,2.8
2022-09-04T03:02:50.000Z,2.7
2022-09-04T03:04:05.000Z,2.6
2022-09-04T03:05:22.000Z,2.7
2022-09-04T03:06:38.000Z,2.6
2022-09-04T03:07:54.000Z,2.6
2022-09-04T03:09:11.000Z,2.4
2022-09-04T03:10:27.000Z,2.4
2022-09-04T03:11:43.000Z,3.2
2022-09-04T03:14:16.000Z,2.9
2022-09-04T03:15:32.000Z,2.9
2022-09-04T03:16:48.000Z,2.4
2022-09-04T03:18:05.000Z,2.9
2022-09-04T03:19:21.000Z,3
2022-09-04T03:20:36.000Z,2.8
2022-09-04T03:23:09.000Z,2.8
2022-09-04T03:24:24.000Z,2.9
2022-09-04T03:25:39.000Z,2.9
2022-09-04T03:26:56.000Z,2.7
2022-09-04T03:28:12.000Z,2.7
2022-09-04T03:29:28.000Z,2.6
2022-09-04T03:30:44.000Z,2.7
2022-09-04T03:32:01.000Z,3
2022-09-04T03:34:33.000Z,2.6
2022-09-04T03:35:50.000Z,2.6
2022-09-04T03:37:06.000Z,2.8
2022-09-04T03:38:22.000Z,2.8
2022-09-04T03:39:38.000Z,2.8
2022-09-04T03:40:55.000Z,2.9
2022-09-04T03:42:10.000Z,2.7
2022-09-04T03:43:26.000Z,2.6
2022-09-04T03:44:43.000Z,2.8
2022-09-04T03:45:59.000Z,2.8
2022-09-04T03:47:15.000Z,2.8
2022-09-04T03:48:31.000Z,2.7
2022-09-04T03:49:48.000Z,2.7
2022-09-04T03:51:04.000Z,2.7
2022-09-04T03:52:19.000Z,3
2022-09-04T03:53:35.000Z,2.7
2022-09-04T03:54:51.000Z,2.8
2022-09-04T03:56:07.000Z,2.9
2022-09-04T03:58:40.000Z,2.8
2022-09-04T03:59:56.000Z,2.9
2022-09-04T04:01:11.000Z,2.8
2022-09-04T04:02:28.000Z,2.8
2022-09-04T04:05:00.000Z,2.9
2022-09-04T04:06:17.000Z,2.7
2022-09-04T04:07:33.000Z,3
2022-09-04T04:08:48.000Z,2.8
2022-09-04T04:10:03.000Z,2.9
2022-09-04T04:11:20.000Z,2.8
2022-09-04T04:12:36.000Z,3.2
2022-09-04T04:13:52.000Z,3
2022-09-04T04:15:08.000Z,3
2022-09-04T04:16:25.000Z,2.7
2022-09-04T04:17:41.000Z,2.9
2022-09-04T04:18:57.000Z,2.9
2022-09-04T04:20:14.000Z,2.9
2022-09-04T04:21:30.000Z,2.9
2022-09-04T04:22:45.000Z,2.9
2022-09-04T04:24:00.000Z,2.9
2022-09-04T04:25:16.000Z,3.1
2022-09-04T04:26:33.000Z,4
2022-09-04T04:27:49.000Z,3.3
2022-09-04T04:29:05.000Z,3
2022-09-04T04:30:21.000Z,2.9
2022-09-04T04:31:38.000Z,3.1
2022-09-04T04:32:54.000Z,3
2022-09-04T04:34:10.000Z,3.8
2022-09-04T04:35:26.000Z,3.2
2022-09-04T04:36:42.000Z,3.3
2022-09-04T04:37:57.000Z,3.2
2022-09-04T04:39:13.000Z,3.1
2022-09-04T04:40:29.000Z,3.3
2022-09-04T04:43:02.000Z,3.1
2022-09-04T04:44:18.000Z,3.3
2022-09-04T04:45:34.000Z,3
2022-09-04T04:46:51.000Z,2.9
2022-09-04T04:48:07.000Z,3.2
2022-09-04T04:49:23.000Z,3.2
2022-09-04T04:50:39.000Z,3.5
2022-09-04T04:51:55.000Z,3.1
2022-09-04T04:53:12.000Z,3.7
2022-09-04T04:55:43.000Z,3.1
2022-09-04T04:56:58.000Z,3.2
2022-09-04T04:58:14.000Z,3.2
2022-09-04T04:59:30.000Z,3.3
2022-09-04T05:00:46.000Z,3.3
2022-09-04T05:02:02.000Z,3.3
2022-09-04T05:03:19.000Z,3
2022-09-04T05:04:35.000Z,3.4
2022-09-04T05:08:24.000Z,3.5
2022-09-04T05:09:40.000Z,3.7
2022-09-04T05:10:56.000Z,3.4
2022-09-04T05:12:12.000Z,3.6
2022-09-04T05:13:27.000Z,3.4
2022-09-04T05:14:43.000Z,3.1
2022-09-04T05:15:59.000Z,4
2022-09-04T05:17:15.000Z,3.6
2022-09-04T05:18:31.000Z,3.7
2022-09-04T05:21:04.000Z,3.4
2022-09-04T05:22:20.000Z,3.3
2022-09-04T05:23:36.000Z,3.2
2022-09-04T05:24:53.000Z,3.9
2022-09-04T05:26:09.000Z,3.5
2022-09-04T05:27:25.000Z,3.6
2022-09-04T05:28:41.000Z,3.5
2022-09-04T05:29:58.000Z,3.6
2022-09-04T05:31:13.000Z,3.8
2022-09-04T05:32:29.000Z,3.7
2022-09-04T05:33:45.000Z,3.4
2022-09-04T05:35:01.000Z,3.4
2022-09-04T05:36:18.000Z,4
2022-09-04T05:37:34.000Z,3.6
2022-09-04T05:38:50.000Z,3.3
2022-09-04T05:40:06.000Z,3.8
2022-09-04T05:41:22.000Z,3.3
2022-09-04T05:42:37.000Z,3.9
2022-09-04T05:43:53.000Z,3.5
2022-09-04T05:46:26.000Z,4.1
2022-09-04T05:47:42.000Z,3.5
2022-09-04T05:48:58.000Z,3.6
2022-09-04T05:50:14.000Z,3.5
2022-09-04T05:51:31.000Z,3.5
2022-09-04T05:52:47.000Z,3.5
2022-09-04T05:54:03.000Z,3.6
2022-09-04T05:55:19.000Z,3.4
2022-09-04T05:56:35.000Z,3.9
2022-09-04T05:57:52.000Z,4
2022-09-04T05:59:07.000Z,3.4
2022-09-04T06:00:23.000Z,3.4
2022-09-04T06:01:39.000Z,3.4
2022-09-04T06:02:56.000Z,3.5
2022-09-04T06:04:12.000Z,3.4
2022-09-04T06:05:28.000Z,3.3
2022-09-04T06:06:44.000Z,3.5
2022-09-04T06:08:01.000Z,3.6
2022-09-04T06:09:16.000Z,3.7
2022-09-04T06:10:31.000Z,3.8
2022-09-04T06:11:47.000Z,3.5
2022-09-04T06:13:04.000Z,3.6
2022-09-04T06:14:20.000Z,3.6
2022-09-04T06:15:36.000Z,3.5
2022-09-04T06:16:52.000Z,3.6
2022-09-04T06:18:09.000Z,3.7
2022-09-04T06:19:25.000Z,3.5
2022-09-04T06:20:41.000Z,3.4
2022-09-04T06:21:57.000Z,3.2
2022-09-04T06:24:30.000Z,3.6
2022-09-04T06:25:46.000Z,3.4
2022-09-04T06:27:01.000Z,3.3
2022-09-04T06:28:17.000Z,3.5
2022-09-04T06:29:34.000Z,3.5
2022-09-04T06:30:50.000Z,3.4
2022-09-04T06:32:06.000Z,3.5
2022-09-04T06:33:22.000Z,3.5
2022-09-04T06:34:39.000Z,3.4
2022-09-04T06:35:55.000Z,3.1
2022-09-04T06:37:11.000Z,3.7
2022-09-04T06:38:27.000Z,3.3
2022-09-04T06:39:43.000Z,3.4
2022-09-04T06:41:00.000Z,3.6
2022-09-04T06:42:16.000Z,3.2
2022-09-04T06:43:31.000Z,4.1
2022-09-04T06:44:47.000Z,3.9
2022-09-04T06:46:04.000Z,3.9
2022-09-04T06:47:20.000Z,3.6
2022-09-04T06:49:52.000Z,3.6
2022-09-04T06:51:09.000Z,3.7
2022-09-04T06:52:25.000Z,3.6
2022-09-04T06:53:41.000Z,3.4
2022-09-04T06:54:57.000Z,3.6
2022-09-04T06:56:14.000Z,3.3
2022-09-04T06:57:30.000Z,3.5
2022-09-04T06:58:46.000Z,3.5
2022-09-04T07:01:17.000Z,3.5
2022-09-04T07:03:50.000Z,3.9
2022-09-04T07:05:05.000Z,3.7
2022-09-04T07:06:20.000Z,3.8
2022-09-04T07:07:37.000Z,3.9
2022-09-04T07:08:53.000Z,3.5
2022-09-04T07:10:09.000Z,3.7
2022-09-04T07:11:25.000Z,3.5
2022-09-04T07:12:42.000Z,3.4
2022-09-04T07:13:58.000Z,3.2
2022-09-04T07:15:14.000Z,3.4
2022-09-04T07:16:30.000Z,3.4
2022-09-04T07:17:47.000Z,3.9
2022-09-04T07:19:02.000Z,3.4
2022-09-04T07:20:17.000Z,3.4
2022-09-04T07:21:33.000Z,3.6
2022-09-04T07:22:50.000Z,3.7
2022-09-04T07:24:06.000Z,3.5
2022-09-04T07:25:22.000Z,3.4
2022-09-04T07:27:54.000Z,3.7
2022-09-04T07:29:11.000Z,3.5
2022-09-04T07:30:27.000Z,3.3
2022-09-04T07:31:43.000Z,3.9
2022-09-04T07:32:59.000Z,3.5
2022-09-04T07:34:16.000Z,3.4
2022-09-04T07:35:32.000Z,3.3
2022-09-04T07:36:47.000Z,3.4
2022-09-04T07:38:03.000Z,3.6
2022-09-04T07:39:20.000Z,3.4
2022-09-04T07:40:36.000Z,3.4
2022-09-04T07:41:52.000Z,3.4
2022-09-04T07:43:08.000Z,3.4
2022-09-04T07:44:25.000Z,3.4
2022-09-04T07:45:41.000Z,3.5
2022-09-04T07:46:57.000Z,3.7
2022-09-04T07:48:13.000Z,3.1
2022-09-04T07:49:29.000Z,3.4
2022-09-04T07:50:46.000Z,3.5
2022-09-04T07:53:18.000Z,3.3
2022-09-04T07:54:33.000Z,3.6
2022-09-04T07:55:50.000Z,3.6
2022-09-04T07:57:06.000Z,3.1
2022-09-04T07:58:22.000Z,3.6
2022-09-04T07:59:38.000Z,3.1
2022-09-04T08:00:55.000Z,3.5
2022-09-04T08:02:11.000Z,3.4
2022-09-04T08:03:27.000Z,3.4
2022-09-04T08:04:43.000Z,3.4
2022-09-04T08:05:59.000Z,3.5
2022-09-04T08:08:32.000Z,3.4
2022-09-04T08:09:48.000Z,3.5
2022-09-04T08:12:20.000Z,3.6
2022-09-04T08:13:35.000Z,3.7
2022-09-04T08:14:50.000Z,3.8
2022-09-04T08:16:05.000Z,3.5
2022-09-04T08:17:22.000Z,3.3
2022-09-04T08:18:38.000Z,3.2
2022-09-04T08:19:54.000Z,3.1
2022-09-04T08:21:10.000Z,3.7
2022-09-04T08:22:27.000Z,3.8
2022-09-04T08:23:43.000Z,3.3
2022-09-04T08:24:59.000Z,3.2
2022-09-04T08:26:15.000Z,3.2
2022-09-04T08:27:31.000Z,3
2022-09-04T08:28:46.000Z,3.2
2022-09-04T08:30:02.000Z,3.3
2022-09-04T08:31:18.000Z,3.4
2022-09-04T08:32:35.000Z,3.7
2022-09-04T08:33:51.000Z,3.2
2022-09-04T08:35:07.000Z,3.3
2022-09-04T08:36:23.000Z,3.3
2022-09-04T08:37:39.000Z,4
2022-09-04T08:38:56.000Z,3.3
2022-09-04T08:40:12.000Z,3.1
2022-09-04T08:41:28.000Z,3.6
2022-09-04T08:42:44.000Z,3.2
2022-09-04T08:44:01.000Z,3.3
2022-09-04T08:45:16.000Z,3.3
2022-09-04T08:46:32.000Z,3.4
2022-09-04T08:47:48.000Z,3.3
2022-09-04T08:49:05.000Z,3.2
2022-09-04T08:50:21.000Z,3.2
2022-09-04T08:51:37.000Z,3.4
2022-09-04T08:52:53.000Z,3.3
2022-09-04T08:54:09.000Z,3.6
2022-09-04T08:55:26.000Z,3.8
2022-09-04T08:56:42.000Z,3.2
2022-09-04T08:57:58.000Z,3.3
2022-09-04T08:59:14.000Z,3.2
2022-09-04T09:00:31.000Z,3
2022-09-04T09:01:46.000Z,3.2
2022-09-04T09:03:02.000Z,3.2
2022-09-04T09:04:18.000Z,3.1
2022-09-04T09:05:35.000Z,3
2022-09-04T09:06:51.000Z,3.3
2022-09-04T09:09:23.000Z,3.2
2022-09-04T09:10:40.000Z,3.1
2022-09-04T09:11:56.000Z,3
2022-09-04T09:13:12.000Z,2.9
2022-09-04T09:14:28.000Z,2.7
2022-09-04T09:15:44.000Z,2.9
2022-09-04T09:17:01.000Z,3.1
2022-09-04T09:18:16.000Z,3.4
2022-09-04T09:19:32.000Z,3.1
2022-09-04T09:22:05.000Z,3.1
2022-09-04T09:23:21.000Z,2.8
2022-09-04T09:25:53.000Z,2.9
2022-09-04T09:27:09.000Z,3
2022-09-04T09:28:24.000Z,3
2022-09-04T09:29:40.000Z,2.9
2022-09-04T09:30:56.000Z,3
2022-09-04T09:33:29.000Z,2.7
2022-09-04T09:36:01.000Z,2.9
2022-09-04T09:37:17.000Z,2.9
2022-09-04T09:38:34.000Z,2.9
2022-09-04T09:39:50.000Z,2.9
2022-09-04T09:41:06.000Z,2.9
2022-09-04T09:42:22.000Z,3
2022-09-04T09:43:38.000Z,3.1
2022-09-04T09:44:53.000Z,2.9
2022-09-04T09:47:25.000Z,3
2022-09-04T09:48:42.000Z,3
2022-09-04T09:49:58.000Z,3
2022-09-04T09:51:14.000Z,3.2
2022-09-04T09:52:30.000Z,3.2
2022-09-04T09:53:47.000Z,2.9
2022-09-04T09:55:03.000Z,3
2022-09-04T09:56:19.000Z,2.7
2022-09-04T09:57:35.000Z,3
2022-09-04T09:58:52.000Z,2.6
2022-09-04T10:00:08.000Z,2.6
2022-09-04T10:01:23.000Z,2.8
2022-09-04T10:02:39.000Z,2.8
2022-09-04T10:03:55.000Z,2.8
2022-09-04T10:05:12.000Z,2.5
2022-09-04T10:06:28.000Z,2.5
2022-09-04T10:07:44.000Z,2.9
2022-09-04T10:09:00.000Z,2.8
2022-09-04T10:10:17.000Z,2.4
2022-09-04T10:11:32.000Z,2.8
2022-09-04T10:12:47.000Z,2.5
2022-09-04T10:14:03.000Z,2.6
2022-09-04T10:15:20.000Z,2.7
2022-09-04T10:16:36.000Z,2.4
2022-09-04T10:17:52.000Z,2.5
2022-09-04T10:19:08.000Z,2.7
2022-09-04T10:20:25.000Z,2.3
2022-09-04T10:21:41.000Z,2.8
2022-09-04T10:22:57.000Z,2.4
2022-09-04T10:25:29.000Z,2.6
2022-09-04T10:26:46.000Z,2.4
2022-09-04T10:28:02.000Z,2.4
2022-09-04T10:29:17.000Z,2.4
2022-09-04T10:30:33.000Z,2.6
2022-09-04T10:31:50.000Z,2.5
2022-09-04T10:33:06.000Z,2.6
2022-09-04T10:34:22.000Z,2.5
2022-09-04T10:35:38.000Z,2.3
2022-09-04T10:36:55.000Z,2.6
2022-09-04T10:38:11.000Z,2.7
2022-09-04T10:39:26.000Z,2.6
2022-09-04T10:40:41.000Z,2.6
2022-09-04T10:41:58.000Z,2.3
2022-09-04T10:43:14.000Z,2.9
2022-09-04T10:44:30.000Z,2.4
2022-09-04T10:45:46.000Z,2.3
2022-09-04T10:47:02.000Z,2.7
2022-09-04T10:48:19.000Z,2.4
2022-09-04T10:49:35.000Z,2.4
2022-09-04T10:50:51.000Z,2.4
2022-09-04T10:52:07.000Z,2.5
2022-09-04T10:53:24.000Z,2.5
2022-09-04T10:54:40.000Z,2.4
2022-09-04T10:55:56.000Z,2.3
2022-09-04T10:57:11.000Z,2.3
2022-09-04T10:58:28.000Z,2.6
2022-09-04T10:59:44.000Z,2.3
2022-09-04T11:01:00.000Z,2.5
2022-09-04T11:03:33.000Z,2.7
2022-09-04T11:04:49.000Z,2.1
2022-09-04T11:06:05.000Z,2.4
2022-09-04T11:07:21.000Z,2.3
2022-09-04T11:08:37.000Z,2.4
2022-09-04T11:09:54.000Z,2.5
2022-09-04T11:11:10.000Z,2.3
2022-09-04T11:12:26.000Z,2.5
2022-09-04T11:13:41.000Z,2.5
2022-09-04T11:16:14.000Z,2.3
2022-09-04T11:17:30.000Z,2.2
2022-09-04T11:18:46.000Z,2.2
2022-09-04T11:20:03.000Z,2.5
2022-09-04T11:21:19.000Z,2.2
2022-09-04T11:22:35.000Z,2.3
2022-09-04T11:23:51.000Z,2.4
2022-09-04T11:25:08.000Z,2.2
2022-09-04T11:26:24.000Z,2.2
2022-09-04T11:27:40.000Z,2.3
2022-09-04T11:28:56.000Z,2.1
2022-09-04T11:30:11.000Z,2.1
2022-09-04T11:31:28.000Z,2.4
2022-09-04T11:32:44.000Z,2.7
2022-09-04T11:34:00.000Z,2.3
2022-09-04T11:35:16.000Z,1.9
2022-09-04T11:36:33.000Z,2.5
2022-09-04T11:37:49.000Z,2.1
2022-09-04T11:39:05.000Z,2.1
2022-09-04T11:40:21.000Z,2.3
2022-09-04T11:41:38.000Z,2.4
2022-09-04T11:42:54.000Z,2.1
2022-09-04T11:44:10.000Z,2.2
2022-09-04T11:45:26.000Z,2.5
2022-09-04T11:46:42.000Z,2.6
2022-09-04T11:47:58.000Z,2.9
2022-09-04T11:49:14.000Z,2
2022-09-04T11:50:30.000Z,2.6
2022-09-04T11:51:46.000Z,2.5
2022-09-04T11:54:19.000Z,2.1
2022-09-04T11:55:35.000Z,2.2
2022-09-04T11:56:51.000Z,2.3
2022-09-04T11:58:08.000Z,2.4
2022-09-04T11:59:24.000Z,2
2022-09-04T12:00:40.000Z,2.3
2022-09-04T12:01:56.000Z,2.3
2022-09-04T12:03:12.000Z,2.1
2022-09-04T12:04:28.000Z,2.6
2022-09-04T12:05:44.000Z,2.4
2022-09-04T12:07:00.000Z,2.6
2022-09-04T12:08:17.000Z,2.3
2022-09-04T12:09:33.000Z,2.4
2022-09-04T12:10:49.000Z,2.1
2022-09-04T12:12:05.000Z,2
2022-09-04T12:13:21.000Z,2.3
2022-09-04T12:14:38.000Z,2.4
2022-09-04T12:15:54.000Z,2.5
2022-09-04T12:17:10.000Z,2.5
2022-09-04T12:19:43.000Z,1.9
2022-09-04T12:20:58.000Z,2.1
2022-09-04T12:22:14.000Z,2
2022-09-04T12:23:30.000Z,2.2
2022-09-04T12:24:47.000Z,2.2
2022-09-04T12:26:03.000Z,2.1
2022-09-04T12:27:19.000Z,2.2
2022-09-04T12:28:35.000Z,2.2
2022-09-04T12:29:52.000Z,2.3
2022-09-04T12:32:23.000Z,2.2
2022-09-04T12:33:38.000Z,2.3
2022-09-04T12:34:54.000Z,2.3
2022-09-04T12:36:11.000Z,2.4
2022-09-04T12:37:27.000Z,2.1
2022-09-04T12:38:43.000Z,2.2
2022-09-04T12:39:59.000Z,2
2022-09-04T12:41:16.000Z,2
2022-09-04T12:42:32.000Z,2.1
2022-09-04T12:43:48.000Z,2.3
2022-09-04T12:45:04.000Z,2.5
2022-09-04T12:46:21.000Z,2.2
2022-09-04T12:47:37.000Z,2.2
2022-09-04T12:48:53.000Z,2.1
2022-09-04T12:50:08.000Z,2.1
2022-09-04T12:51:25.000Z,2.3
2022-09-04T12:52:41.000Z,2.1
2022-09-04T12:53:57.000Z,1.9
2022-09-04T12:55:13.000Z,2.2
2022-09-04T12:56:29.000Z,2.2
2022-09-04T12:57:46.000Z,2.6
2022-09-04T12:59:02.000Z,2
2022-09-04T13:00:18.000Z,2.9
2022-09-04T13:01:34.000Z,2.3
2022-09-04T13:02:51.000Z,2.2
2022-09-04T13:04:07.000Z,2
2022-09-04T13:05:23.000Z,2.1
2022-09-04T13:06:38.000Z,2.4
2022-09-04T13:07:55.000Z,2
2022-09-04T13:09:11.000Z,2.2
2022-09-04T13:10:27.000Z,2.2
2022-09-04T13:11:43.000Z,2.2
2022-09-04T13:13:00.000Z,2.3
2022-09-04T13:14:16.000Z,2.1
2022-09-04T13:15:32.000Z,2.2
2022-09-04T13:16:48.000Z,2.4
2022-09-04T13:18:04.000Z,2.2
2022-09-04T13:19:21.000Z,2.3
2022-09-04T13:23:09.000Z,1.9
2022-09-04T13:24:25.000Z,2.1
2022-09-04T13:25:41.000Z,2.2
2022-09-04T13:28:13.000Z,2.1
2022-09-04T13:29:29.000Z,2.1
2022-09-04T13:30:44.000Z,2.1
2022-09-04T13:32:00.000Z,2.2
2022-09-04T13:33:16.000Z,2.2
2022-09-04T13:34:33.000Z,2.3
2022-09-04T13:35:49.000Z,2.1
2022-09-04T13:37:05.000Z,2.3
2022-09-04T13:38:21.000Z,2.3
2022-09-04T13:39:37.000Z,2.2
2022-09-04T13:40:54.000Z,2.1
2022-09-04T13:42:10.000Z,2.1
2022-09-04T13:43:25.000Z,2.2
2022-09-04T13:44:40.000Z,2.2
2022-09-04T13:45:57.000Z,2.2
2022-09-04T13:48:29.000Z,2.2
2022-09-04T13:49:45.000Z,2.6
2022-09-04T13:51:02.000Z,2.4
2022-09-04T13:52:18.000Z,2
2022-09-04T13:53:34.000Z,2
2022-09-04T13:54:50.000Z,1.9
2022-09-04T13:56:07.000Z,2.3
2022-09-04T13:57:23.000Z,2.2
2022-09-04T13:58:39.000Z,2
2022-09-04T14:01:11.000Z,2
2022-09-04T14:02:27.000Z,1.9
2022-09-04T14:03:42.000Z,2.2
2022-09-04T14:04:58.000Z,2
2022-09-04T14:06:14.000Z,1.8
2022-09-04T14:07:31.000Z,2.2
2022-09-04T14:08:47.000Z,2.1
2022-09-04T14:11:19.000Z,2.2
2022-09-04T14:13:52.000Z,2.3
2022-09-04T14:15:08.000Z,2.2
2022-09-04T14:17:41.000Z,2.2
2022-09-04T14:18:57.000Z,2.1
2022-09-04T14:20:12.000Z,2
2022-09-04T14:21:27.000Z,2.1
2022-09-04T14:22:44.000Z,1.9
2022-09-04T14:24:00.000Z,1.9
2022-09-04T14:25:16.000Z,2.1
2022-09-04T14:26:32.000Z,2.1
2022-09-04T14:27:48.000Z,2
2022-09-04T14:29:05.000Z,2
2022-09-04T14:30:21.000Z,2.2
2022-09-04T14:31:37.000Z,2.1
2022-09-04T14:32:53.000Z,1.9
2022-09-04T14:34:09.000Z,2.4
2022-09-04T14:35:24.000Z,2.2
2022-09-04T14:37:56.000Z,2.1
2022-09-04T14:39:13.000Z,2.3
2022-09-04T14:40:29.000Z,1.9
2022-09-04T14:41:45.000Z,2.2
2022-09-04T14:43:01.000Z,2
2022-09-04T14:44:18.000Z,2.4
2022-09-04T14:45:34.000Z,2.2
2022-09-04T14:46:50.000Z,1.9
2022-09-04T14:48:06.000Z,2.6
2022-09-04T14:49:22.000Z,2.1
2022-09-04T14:51:55.000Z,2.2
2022-09-04T14:53:10.000Z,2.2
2022-09-04T14:54:25.000Z,2.8
2022-09-04T14:55:42.000Z,2.3
2022-09-04T14:56:58.000Z,2.2
2022-09-04T14:58:14.000Z,2.3
2022-09-04T14:59:30.000Z,2.4
2022-09-04T15:02:03.000Z,2.2
2022-09-04T15:03:19.000Z,2.4
2022-09-04T15:04:35.000Z,2.5
2022-09-04T15:05:52.000Z,2.3
2022-09-04T15:07:08.000Z,2.2
2022-09-04T15:08:24.000Z,2.3
2022-09-04T15:09:40.000Z,2.2
2022-09-04T15:10:55.000Z,2.4
2022-09-04T15:12:12.000Z,2.2
2022-09-04T15:13:28.000Z,2.3
2022-09-04T15:14:44.000Z,2.8
2022-09-04T15:17:17.000Z,2.5
2022-09-04T15:18:33.000Z,2.3
2022-09-04T15:19:49.000Z,2.4
2022-09-04T15:21:05.000Z,2.4
2022-09-04T15:22:22.000Z,2.4
2022-09-04T15:24:54.000Z,2.4
2022-09-04T15:26:10.000Z,2.3
2022-09-04T15:27:26.000Z,2.4
2022-09-04T15:29:58.000Z,2.6
2022-09-04T15:31:14.000Z,2.7
2022-09-04T15:32:30.000Z,2.6
2022-09-04T15:33:47.000Z,2.2
2022-09-04T15:35:03.000Z,2.4
2022-09-04T15:36:19.000Z,3.2
2022-09-04T15:37:35.000Z,2.7
2022-09-04T15:38:52.000Z,2.7
2022-09-04T15:40:08.000Z,2.5
2022-09-04T15:41:24.000Z,2.5
2022-09-04T15:42:40.000Z,2.8
2022-09-04T15:43:56.000Z,2.6
2022-09-04T15:45:12.000Z,2.3
2022-09-04T15:46:28.000Z,4.2
2022-09-04T15:47:44.000Z,2.6
2022-09-04T15:49:01.000Z,2.7
2022-09-04T15:50:17.000Z,2.4
2022-09-04T15:51:32.000Z,2.5
2022-09-04T15:52:47.000Z,2.9
2022-09-04T15:55:20.000Z,2.5
2022-09-04T15:56:36.000Z,2.3
2022-09-04T15:57:52.000Z,2.3
2022-09-04T15:59:08.000Z,3
2022-09-04T16:00:25.000Z,2.9
2022-09-04T16:01:41.000Z,2.7
2022-09-04T16:02:57.000Z,2.5
2022-09-04T16:04:13.000Z,2.2
2022-09-04T16:05:30.000Z,2.6
2022-09-04T16:06:46.000Z,2.6
2022-09-04T16:08:02.000Z,2.3
2022-09-04T16:09:17.000Z,2.5
2022-09-04T16:11:50.000Z,2.3
2022-09-04T16:13:05.000Z,2.4
2022-09-04T16:14:20.000Z,2.1
2022-09-04T16:15:37.000Z,2.6
2022-09-04T16:16:53.000Z,2.2
2022-09-04T16:18:09.000Z,2.5
2022-09-04T16:19:25.000Z,2.5
2022-09-04T16:20:41.000Z,2.5
2022-09-04T16:21:58.000Z,2.7
2022-09-04T16:23:14.000Z,2.5
2022-09-04T16:24:30.000Z,2.3
2022-09-04T16:25:46.000Z,2.5
2022-09-04T16:27:02.000Z,2.3
2022-09-04T16:28:17.000Z,2.4
2022-09-04T16:29:33.000Z,2.7
2022-09-04T16:30:49.000Z,2.4
2022-09-04T16:33:22.000Z,2.5
2022-09-04T16:34:38.000Z,2.7
2022-09-04T16:35:54.000Z,2.4
2022-09-04T16:37:11.000Z,2.4
2022-09-04T16:38:27.000Z,2.4
2022-09-04T16:39:43.000Z,2.4
2022-09-04T16:40:59.000Z,2.7
2022-09-04T16:42:15.000Z,2.8
2022-09-04T16:43:32.000Z,2.9
2022-09-04T16:47:19.000Z,2.6
2022-09-04T16:48:35.000Z,4
2022-09-04T16:49:50.000Z,2.9
2022-09-04T16:52:22.000Z,2.6
2022-09-04T16:53:39.000Z,2.5
2022-09-04T16:54:55.000Z,2.3
2022-09-04T16:56:11.000Z,2.6
2022-09-04T16:57:27.000Z,2.4
2022-09-04T16:58:44.000Z,2.4
2022-09-04T17:00:00.000Z,2.6
2022-09-04T17:01:16.000Z,2.4
2022-09-04T17:02:32.000Z,2.9
2022-09-04T17:05:05.000Z,2.8
2022-09-04T17:06:20.000Z,2.6
2022-09-04T17:07:36.000Z,2.6
2022-09-04T17:08:52.000Z,2.7
2022-09-04T17:11:25.000Z,2.6
2022-09-04T17:12:41.000Z,2.6
2022-09-04T17:13:57.000Z,2.6
2022-09-04T17:15:14.000Z,2.6
2022-09-04T17:16:30.000Z,2.7
2022-09-04T17:17:46.000Z,3
2022-09-04T17:19:02.000Z,2.7
2022-09-04T17:20:19.000Z,2.9
2022-09-04T17:22:51.000Z,2.7
2022-09-04T17:24:07.000Z,2.5
2022-09-04T17:25:24.000Z,2.7
2022-09-04T17:26:40.000Z,2.7
2022-09-04T17:27:56.000Z,3.1
2022-09-04T17:29:12.000Z,2.7
2022-09-04T17:30:29.000Z,2.6
2022-09-04T17:31:45.000Z,2.8
2022-09-04T17:33:01.000Z,2.6
2022-09-04T17:34:17.000Z,2.5
2022-09-04T17:36:50.000Z,2.7
2022-09-04T17:38:06.000Z,2.6
2022-09-04T17:39:22.000Z,2.6
2022-09-04T17:40:37.000Z,2.3
2022-09-04T17:41:54.000Z,2.9
2022-09-04T17:43:10.000Z,2.6
2022-09-04T17:44:26.000Z,2.7
2022-09-04T17:45:42.000Z,2.7
2022-09-04T17:46:59.000Z,2.9
2022-09-04T17:48:15.000Z,2.8
2022-09-04T17:49:30.000Z,3.5
2022-09-04T17:50:45.000Z,3
2022-09-04T17:52:02.000Z,3.1
2022-09-04T17:53:18.000Z,2.8
2022-09-04T17:54:34.000Z,2.8
2022-09-04T17:55:50.000Z,3
2022-09-04T17:57:06.000Z,2.8
2022-09-04T17:58:23.000Z,2.8
2022-09-04T17:59:39.000Z,2.7
2022-09-04T18:00:55.000Z,2.8
2022-09-04T18:02:11.000Z,2.7
2022-09-04T18:03:27.000Z,2.7
2022-09-04T18:04:42.000Z,2.7
2022-09-04T18:05:58.000Z,2.4
2022-09-04T18:07:14.000Z,2.6
2022-09-04T18:08:31.000Z,2.7
2022-09-04T18:09:47.000Z,2.8
2022-09-04T18:11:03.000Z,2.9
2022-09-04T18:12:19.000Z,2.8
2022-09-04T18:13:36.000Z,2.6
2022-09-04T18:14:52.000Z,3.3
2022-09-04T18:16:08.000Z,2.8
2022-09-04T18:17:24.000Z,2.9
2022-09-04T18:18:40.000Z,2.5
2022-09-04T18:19:57.000Z,2.7
2022-09-04T18:21:12.000Z,2.8
2022-09-04T18:22:28.000Z,2.8
2022-09-04T18:23:44.000Z,2.9
2022-09-04T18:25:01.000Z,3
2022-09-04T18:27:33.000Z,3
2022-09-04T18:28:49.000Z,3.9
2022-09-04T18:30:06.000Z,3.6
2022-09-04T18:31:22.000Z,3.3
2022-09-04T18:32:38.000Z,3.4
2022-09-04T18:33:54.000Z,3.6
2022-09-04T18:35:11.000Z,3
2022-09-04T18:36:27.000Z,3.6
2022-09-04T18:37:42.000Z,3.3
2022-09-04T18:38:58.000Z,3.7
2022-09-04T18:40:15.000Z,3.1
2022-09-04T18:41:31.000Z,3.3
2022-09-04T18:42:47.000Z,3
2022-09-04T18:44:03.000Z,3.1
2022-09-04T18:45:20.000Z,3.2
2022-09-04T18:46:36.000Z,3
2022-09-04T18:47:52.000Z,3.5
2022-09-04T18:49:09.000Z,3.3
2022-09-04T18:50:25.000Z,2.9
2022-09-04T18:52:57.000Z,3
2022-09-04T18:54:13.000Z,3.2
2022-09-04T18:55:29.000Z,3
2022-09-04T18:56:45.000Z,3.1
2022-09-04T18:58:02.000Z,3.2
2022-09-04T18:59:18.000Z,3.2
2022-09-04T19:00:34.000Z,3.1